Time;durP1;ratioP1;P1;durP2;ratioP2;P2;SDS_P1;SDS_P2;PMS_P1;PMS_P2;Temp;Humidity;BMP_temperature;BMP_pressure;BME280_temperature;BME280_humidity;BME280_pressure;Samples;Min_cycle;Max_cycle;Signal;HPM_P1;HPM_P2
2020/12/01 00:00:53;;;;;;;16.33;10.60;;;3.60;99.90;;;;;;5122677;28;20461;-62
2020/12/01 00:03:19;;;;;;;16.93;10.00;;;3.70;99.90;;;;;;5121875;28;20440;-62
2020/12/01 00:05:45;;;;;;;11.80;9.30;;;3.70;99.90;;;;;;5122670;28;20476;-62
2020/12/01 00:08:12;;;;;;;15.17;9.90;;;3.70;99.90;;;;;;5121657;28;20461;-63
2020/12/01 00:10:39;;;;;;;18.30;9.93;;;3.70;99.90;;;;;;5124455;28;20441;-63
2020/12/01 00:13:06;;;;;;;20.43;10.73;;;3.70;99.90;;;;;;5123878;28;20486;-63
2020/12/01 00:15:34;;;;;;;18.03;10.83;;;3.70;99.90;;;;;;5122573;28;20480;-63
2020/12/01 00:18:01;;;;;;;16.63;10.63;;;3.70;99.90;;;;;;5126167;28;20472;-62
2020/12/01 00:20:27;;;;;;;14.80;10.40;;;3.80;99.90;;;;;;5126177;28;20468;-63
2020/12/01 00:22:54;;;;;;;18.40;10.90;;;3.80;99.90;;;;;;5127817;28;20749;-63
2020/12/01 00:25:23;;;;;;;15.63;10.87;;;3.80;99.90;;;;;;5128416;28;20516;-63
2020/12/01 00:27:49;;;;;;;16.10;10.10;;;3.80;99.90;;;;;;5128647;28;20489;-63
2020/12/01 00:30:19;;;;;;;14.73;9.60;;;3.80;99.90;;;;;;5128235;28;20460;-63
2020/12/01 00:32:46;;;;;;;14.40;9.40;;;3.80;99.90;;;;;;5127532;28;20437;-63
2020/12/01 00:35:16;;;;;;;20.20;12.60;;;3.80;99.90;;;;;;5127256;28;20452;-62
2020/12/01 00:37:43;;;;;;;19.63;11.47;;;3.80;99.90;;;;;;5127784;28;20507;-63
2020/12/01 00:40:10;;;;;;;17.30;10.80;;;3.80;99.90;;;;;;5128815;28;20463;-62
2020/12/01 00:42:36;;;;;;;17.33;10.43;;;3.70;99.90;;;;;;5127522;28;20448;-63
2020/12/01 00:45:06;;;;;;;17.43;11.07;;;3.70;99.90;;;;;;5127917;28;20437;-63
2020/12/01 00:47:32;;;;;;;13.30;9.87;;;3.70;99.90;;;;;;5128567;28;20444;-63
2020/12/01 00:49:59;;;;;;;16.47;10.57;;;3.70;99.90;;;;;;5129235;28;20463;-63
2020/12/01 00:52:26;;;;;;;15.50;11.60;;;3.70;99.90;;;;;;5128667;28;20452;-63
2020/12/01 00:54:52;;;;;;;15.10;9.93;;;3.80;99.90;;;;;;5130234;28;20479;-62
2020/12/01 00:57:19;;;;;;;19.90;11.77;;;3.70;99.90;;;;;;5128975;28;20547;-62
2020/12/01 00:59:45;;;;;;;21.13;11.20;;;3.70;99.90;;;;;;5129356;28;20483;-63
2020/12/01 01:02:12;;;;;;;16.00;10.97;;;3.60;99.90;;;;;;5128294;28;20917;-63
2020/12/01 01:04:38;;;;;;;18.07;10.90;;;3.60;99.90;;;;;;5128730;28;20455;-63
2020/12/01 01:07:05;;;;;;;16.33;10.67;;;3.60;99.90;;;;;;5128387;28;20524;-63
2020/12/01 01:09:32;;;;;;;17.00;10.50;;;3.70;99.90;;;;;;5126923;28;20524;-63
2020/12/01 01:11:58;;;;;;;13.13;9.57;;;3.70;99.90;;;;;;5126119;28;20469;-64
2020/12/01 01:14:24;;;;;;;16.77;11.10;;;3.80;99.90;;;;;;5124863;28;20468;-63
2020/12/01 01:16:51;;;;;;;14.87;10.40;;;3.80;99.90;;;;;;5124861;28;20503;-63
2020/12/01 01:19:17;;;;;;;15.07;10.33;;;3.80;99.90;;;;;;5125348;28;20534;-64
2020/12/01 01:21:46;;;;;;;19.90;11.30;;;3.80;99.90;;;;;;5126570;28;20510;-63
2020/12/01 01:24:16;;;;;;;17.43;10.47;;;3.80;99.90;;;;;;5127539;28;20527;-63
2020/12/01 01:26:48;;;;;;;16.33;11.10;;;3.80;99.90;;;;;;5128322;28;20497;-63
2020/12/01 01:29:15;;;;;;;14.63;10.10;;;3.80;99.90;;;;;;5127670;28;20515;-63
2020/12/01 01:31:41;;;;;;;16.93;10.73;;;3.80;99.90;;;;;;5127932;28;20460;-62
2020/12/01 01:34:07;;;;;;;20.47;12.30;;;3.70;99.90;;;;;;5128097;28;20474;-63
2020/12/01 01:36:34;;;;;;;16.97;10.17;;;3.70;99.90;;;;;;5128638;28;20571;-63
2020/12/01 01:39:00;;;;;;;18.13;11.20;;;3.70;99.90;;;;;;5128176;28;20472;-62
2020/12/01 01:41:31;;;;;;;15.97;10.40;;;3.70;99.90;;;;;;5128102;28;20473;-63
2020/12/01 01:43:57;;;;;;;18.27;11.07;;;3.70;99.90;;;;;;5127331;28;20429;-63
2020/12/01 01:46:35;;;;;;;23.90;10.00;;;3.70;99.90;;;;;;5127931;28;20517;-62
2020/12/01 01:49:05;;;;;;;15.13;10.17;;;3.70;99.90;;;;;;5127387;28;20436;-63
2020/12/01 01:51:32;;;;;;;18.07;11.03;;;3.80;99.90;;;;;;5127837;28;20453;-63
2020/12/01 01:53:59;;;;;;;22.40;12.00;;;3.80;99.90;;;;;;5127960;28;20468;-64
2020/12/01 01:56:31;;;;;;;15.90;11.50;;;3.90;99.90;;;;;;5126584;28;20994;-63
2020/12/01 01:58:58;;;;;;;21.27;12.17;;;3.90;99.90;;;;;;5127401;28;20467;-63
2020/12/01 02:01:27;;;;;;;20.33;10.73;;;3.90;99.90;;;;;;5128115;28;20764;-63
2020/12/01 02:03:56;;;;;;;20.00;11.87;;;3.90;99.90;;;;;;5128596;28;20465;-63
2020/12/01 02:06:25;;;;;;;21.83;12.37;;;3.80;99.90;;;;;;5127251;28;20568;-63
2020/12/01 02:08:56;;;;;;;19.70;11.67;;;3.70;99.90;;;;;;5126452;28;20476;-64
2020/12/01 02:11:23;;;;;;;13.50;10.50;;;3.70;99.90;;;;;;5126437;28;20440;-63
2020/12/01 02:14:02;;;;;;;20.20;13.40;;;3.80;99.90;;;;;;5126045;28;20958;-64
2020/12/01 02:16:29;;;;;;;18.30;12.63;;;3.80;99.90;;;;;;5126073;28;20889;-63
2020/12/01 02:18:55;;;;;;;21.23;11.87;;;3.80;99.90;;;;;;5126490;28;20536;-64
2020/12/01 02:21:34;;;;;;;20.30;11.83;;;3.80;99.90;;;;;;5126288;28;20448;-63
2020/12/01 02:24:03;;;;;;;21.40;12.77;;;3.80;99.90;;;;;;5126269;28;20460;-63
2020/12/01 02:26:31;;;;;;;17.90;11.73;;;3.80;99.90;;;;;;5126833;28;20777;-63
2020/12/01 02:29:00;;;;;;;19.60;11.87;;;3.70;99.90;;;;;;5126646;28;20456;-63
2020/12/01 02:31:26;;;;;;;16.90;11.60;;;3.70;99.90;;;;;;5126264;28;20909;-62
2020/12/01 02:33:53;;;;;;;19.23;11.10;;;3.80;99.90;;;;;;5125728;28;20571;-63
2020/12/01 02:36:19;;;;;;;18.37;12.03;;;3.80;99.90;;;;;;5126434;28;20521;-62
2020/12/01 02:38:46;;;;;;;18.73;10.87;;;3.80;99.90;;;;;;5126976;28;20505;-62
2020/12/01 02:41:12;;;;;;;24.50;12.07;;;3.80;99.90;;;;;;5125258;28;20451;-63
2020/12/01 02:43:39;;;;;;;22.67;12.70;;;3.80;99.90;;;;;;5126774;28;20460;-62
2020/12/01 02:46:06;;;;;;;15.90;11.87;;;3.80;99.90;;;;;;5126198;28;20849;-62
2020/12/01 02:48:32;;;;;;;22.17;13.43;;;3.90;99.90;;;;;;5125871;28;20803;-63
2020/12/01 02:50:58;;;;;;;22.20;13.00;;;3.80;99.90;;;;;;5126874;28;20480;-63
2020/12/01 02:53:25;;;;;;;21.47;12.03;;;3.80;99.90;;;;;;5127205;28;20449;-62
2020/12/01 02:55:51;;;;;;;23.23;12.00;;;3.70;99.90;;;;;;5126682;28;20547;-63
2020/12/01 02:58:17;;;;;;;19.63;13.57;;;3.70;99.90;;;;;;5127400;28;20563;-63
2020/12/01 03:00:45;;;;;;;22.70;13.10;;;3.70;99.90;;;;;;5215809;22;20452;-62
2020/12/01 03:03:12;;;;;;;19.23;12.00;;;3.70;99.90;;;;;;5242970;22;20494;-63
2020/12/01 03:05:38;;;;;;;22.00;13.17;;;3.70;99.90;;;;;;5086900;28;20449;-63
2020/12/01 03:08:05;;;;;;;23.63;13.07;;;3.70;99.90;;;;;;5086801;28;20454;-63
2020/12/01 03:10:31;;;;;;;20.00;13.50;;;3.70;99.90;;;;;;5085349;28;20458;-63
2020/12/01 03:12:57;;;;;;;20.53;13.23;;;3.70;99.90;;;;;;5085598;28;20491;-62
2020/12/01 03:15:24;;;;;;;22.30;14.80;;;3.70;99.90;;;;;;5084828;28;20482;-63
2020/12/01 03:17:51;;;;;;;28.97;15.70;;;3.80;99.90;;;;;;5084914;28;20489;-64
2020/12/01 03:20:18;;;;;;;27.17;14.13;;;3.80;99.90;;;;;;5085411;28;20481;-63
2020/12/01 03:22:44;;;;;;;26.63;15.67;;;3.80;99.90;;;;;;5084473;28;20469;-62
2020/12/01 03:25:10;;;;;;;22.80;14.10;;;3.90;99.90;;;;;;5085160;28;20483;-64
2020/12/01 03:27:37;;;;;;;18.73;11.90;;;3.90;99.90;;;;;;5084926;28;20819;-63
2020/12/01 03:30:06;;;;;;;28.43;15.77;;;3.90;99.90;;;;;;5084624;28;20497;-63
2020/12/01 03:32:32;;;;;;;24.80;15.60;;;3.90;99.90;;;;;;5083396;28;20529;-62
2020/12/01 03:35:00;;;;;;;23.03;14.50;;;3.80;99.90;;;;;;5081192;28;20470;-63
2020/12/01 03:37:26;;;;;;;21.57;12.97;;;3.90;99.90;;;;;;5081252;28;20482;-63
2020/12/01 03:39:52;;;;;;;22.70;15.20;;;3.90;99.90;;;;;;5082317;28;20522;-63
2020/12/01 03:42:19;;;;;;;27.30;14.87;;;3.90;99.90;;;;;;5085170;28;20479;-62
2020/12/01 03:44:45;;;;;;;27.90;16.30;;;3.90;99.90;;;;;;5085309;28;20517;-63
2020/12/01 03:47:11;;;;;;;28.57;14.83;;;3.90;99.90;;;;;;5085420;28;20462;-64
2020/12/01 03:49:38;;;;;;;24.10;14.90;;;3.90;99.90;;;;;;5085198;28;20743;-64
2020/12/01 03:52:05;;;;;;;24.13;15.77;;;3.90;99.90;;;;;;5084284;28;20442;-63
2020/12/01 03:54:32;;;;;;;24.13;14.40;;;4.00;99.90;;;;;;5084198;28;20455;-63
2020/12/01 03:56:58;;;;;;;30.10;16.23;;;4.00;99.90;;;;;;5083881;28;20482;-63
2020/12/01 03:59:25;;;;;;;24.20;14.43;;;4.00;99.90;;;;;;5084120;28;20461;-63
2020/12/01 04:01:51;;;;;;;26.10;16.37;;;4.00;99.90;;;;;;5084112;28;20532;-63
2020/12/01 04:04:18;;;;;;;27.10;14.97;;;4.10;99.90;;;;;;5084309;28;20557;-63
2020/12/01 04:06:44;;;;;;;29.90;17.20;;;4.00;99.90;;;;;;5084039;28;20510;-63
2020/12/01 04:09:12;;;;;;;28.03;16.83;;;4.00;99.90;;;;;;5082867;28;20542;-62
2020/12/01 04:11:38;;;;;;;27.10;17.37;;;4.00;99.90;;;;;;5083899;28;20442;-63
2020/12/01 04:14:04;;;;;;;24.57;16.20;;;4.00;99.90;;;;;;5084384;28;20466;-63
2020/12/01 04:16:31;;;;;;;31.97;17.30;;;4.00;99.90;;;;;;5084532;28;20478;-63
2020/12/01 04:18:57;;;;;;;30.13;17.90;;;4.00;99.90;;;;;;5084438;28;20482;-63
2020/12/01 04:21:23;;;;;;;29.60;16.97;;;3.90;99.90;;;;;;5083888;28;20541;-63
2020/12/01 04:23:51;;;;;;;27.20;16.03;;;4.00;99.90;;;;;;5083652;28;20462;-63
2020/12/01 04:26:21;;;;;;;37.60;18.80;;;4.00;99.90;;;;;;5083394;28;20955;-62
2020/12/01 04:28:47;;;;;;;30.73;16.20;;;4.00;99.90;;;;;;5083917;28;20502;-63
2020/12/01 04:31:14;;;;;;;28.60;18.57;;;4.10;99.90;;;;;;5084650;28;20574;-62
2020/12/01 04:33:41;;;;;;;29.90;19.27;;;4.10;99.90;;;;;;5084868;28;20446;-63
2020/12/01 04:36:08;;;;;;;33.10;17.87;;;4.10;99.90;;;;;;5084851;28;20476;-63
2020/12/01 04:38:34;;;;;;;30.80;18.63;;;4.00;99.90;;;;;;5084517;28;20474;-62
2020/12/01 04:41:01;;;;;;;32.43;19.90;;;4.00;99.90;;;;;;5084304;28;20514;-63
2020/12/01 04:43:33;;;;;;;33.30;17.67;;;4.00;99.90;;;;;;5082815;28;20461;-63
2020/12/01 04:46:02;;;;;;;32.83;18.80;;;4.00;99.90;;;;;;5083269;28;20494;-63
2020/12/01 04:48:36;;;;;;;30.13;18.90;;;4.10;99.90;;;;;;5083102;28;20434;-62
2020/12/01 04:51:16;;;;;;;31.23;19.10;;;4.10;99.90;;;;;;5085248;28;20441;-62
2020/12/01 04:54:02;;;;;;;31.27;18.23;;;4.10;99.90;;;;;;5086568;28;20460;-63
2020/12/01 04:57:15;;;;;;;34.60;18.03;;;4.10;99.90;;;;;;5086904;28;20458;-63
2020/12/01 04:59:58;;;;;;;33.70;18.43;;;3.90;99.90;;;;;;5084988;28;20438;-63
2020/12/01 05:02:47;;;;;;;33.20;18.47;;;3.90;99.90;;;;;;5084033;28;20462;-60
2020/12/01 05:05:41;;;;;;;32.10;19.50;;;3.90;99.90;;;;;;5087432;28;20464;-62
2020/12/01 05:08:37;;;;;;;31.70;18.13;;;3.90;99.90;;;;;;5089148;28;20473;-63
2020/12/01 05:11:14;;;;;;;37.93;20.20;;;3.80;99.90;;;;;;5087864;28;20895;-63
2020/12/01 05:13:40;;;;;;;34.20;17.23;;;3.80;99.90;;;;;;5087452;28;20435;-63
2020/12/01 05:16:27;;;;;;;34.93;20.60;;;3.80;99.90;;;;;;5086741;28;20442;-63
2020/12/01 05:18:54;;;;;;;31.47;20.13;;;3.90;99.90;;;;;;5085864;28;20930;-63
2020/12/01 05:21:25;;;;;;;31.63;17.80;;;3.90;99.90;;;;;;5087063;28;20442;-63
2020/12/01 05:23:52;;;;;;;35.90;19.97;;;4.00;99.90;;;;;;5087004;28;20496;-62
2020/12/01 05:26:20;;;;;;;33.80;18.67;;;4.00;99.90;;;;;;5087281;28;20439;-63
2020/12/01 05:28:49;;;;;;;35.37;19.43;;;4.00;99.90;;;;;;5087055;28;20454;-62
2020/12/01 05:31:19;;;;;;;38.27;22.17;;;4.00;99.90;;;;;;5087506;28;20463;-64
2020/12/01 05:33:46;;;;;;;33.60;19.87;;;4.00;99.90;;;;;;5086648;28;20516;-63
2020/12/01 05:36:18;;;;;;;36.70;19.70;;;4.00;99.90;;;;;;5086866;28;20474;-63
2020/12/01 05:38:57;;;;;;;31.73;19.10;;;4.00;99.90;;;;;;5085332;28;20514;-63
2020/12/01 05:41:26;;;;;;;34.77;20.50;;;4.10;99.90;;;;;;5085973;28;20464;-62
2020/12/01 05:43:55;;;;;;;33.23;18.63;;;4.10;99.90;;;;;;5086149;28;20442;-63
2020/12/01 05:46:36;;;;;;;33.67;18.10;;;4.00;99.90;;;;;;5085946;28;20477;-64
2020/12/01 05:49:23;;;;;;;34.60;21.33;;;4.00;99.90;;;;;;5082810;28;20847;-64
2020/12/01 05:52:00;;;;;;;39.63;21.17;;;3.90;99.90;;;;;;5081864;28;20470;-64
2020/12/01 05:54:36;;;;;;;33.60;18.87;;;4.00;99.90;;;;;;5081588;28;20515;-63
2020/12/01 05:57:04;;;;;;;30.97;18.33;;;4.00;99.90;;;;;;5082382;28;20560;-64
2020/12/01 05:59:30;;;;;;;31.20;18.57;;;4.00;99.90;;;;;;5085452;28;20529;-63
2020/12/01 06:02:03;;;;;;;36.80;19.80;;;4.10;99.90;;;;;;5085843;28;20459;-62
2020/12/01 06:04:30;;;;;;;40.33;19.90;;;4.00;99.90;;;;;;5085147;28;20865;-63
2020/12/01 06:07:12;;;;;;;32.33;20.50;;;4.10;99.90;;;;;;5085844;28;20442;-62
2020/12/01 06:09:59;;;;;;;40.30;23.70;;;4.00;99.90;;;;;;5086272;28;20457;-63
2020/12/01 06:12:47;;;;;;;35.90;20.80;;;4.10;99.90;;;;;;5085988;28;20427;-63
2020/12/01 06:15:17;;;;;;;36.80;20.90;;;4.10;99.90;;;;;;5085097;28;20458;-63
2020/12/01 06:17:50;;;;;;;34.57;19.53;;;4.10;99.90;;;;;;5086089;28;20597;-62
2020/12/01 06:20:23;;;;;;;36.33;20.27;;;4.00;99.90;;;;;;5086060;28;20457;-62
2020/12/01 06:23:36;;;;;;;36.00;19.33;;;4.00;99.90;;;;;;5084739;28;20478;-63
2020/12/01 06:26:38;;;;;;;38.63;20.70;;;4.00;99.90;;;;;;5085989;28;20485;-63
2020/12/01 06:29:33;;;;;;;33.40;18.63;;;4.00;99.90;;;;;;5044183;28;20454;-63
2020/12/01 06:32:23;;;;;;;36.33;21.20;;;3.90;99.90;;;;;;5085961;28;20482;-63
2020/12/01 06:35:24;;;;;;;38.23;21.27;;;3.90;99.90;;;;;;5085220;28;20446;-63
2020/12/01 06:38:20;;;;;;;40.97;21.80;;;3.90;99.90;;;;;;5070573;28;20514;-63
2020/12/01 06:40:51;;;;;;;30.03;17.87;;;3.90;99.90;;;;;;5086029;28;20506;-63
2020/12/01 06:43:23;;;;;;;30.77;20.07;;;3.90;99.90;;;;;;5085337;28;20477;-63
2020/12/01 06:45:53;;;;;;;41.97;21.77;;;3.90;99.90;;;;;;5085332;28;20499;-64
2020/12/01 06:48:22;;;;;;;37.83;20.87;;;3.90;99.90;;;;;;5085842;28;20447;-63
2020/12/01 06:50:53;;;;;;;32.60;18.60;;;3.90;99.90;;;;;;5085284;28;20438;-64
2020/12/01 06:53:29;;;;;;;37.50;19.50;;;3.80;99.90;;;;;;5087062;28;20441;-63
2020/12/01 06:55:58;;;;;;;36.83;21.67;;;3.90;99.90;;;;;;5085980;28;20460;-63
2020/12/01 06:58:39;;;;;;;37.00;20.00;;;3.90;99.90;;;;;;5085109;28;20565;-62
2020/12/01 07:01:12;;;;;;;39.27;21.67;;;3.90;99.90;;;;;;5085433;28;20820;-63
2020/12/01 07:03:39;;;;;;;34.47;20.40;;;3.90;99.90;;;;;;5084685;28;20488;-62
2020/12/01 07:06:17;;;;;;;38.53;20.80;;;3.90;99.90;;;;;;5083420;28;20675;-63
2020/12/01 07:08:43;;;;;;;36.37;20.30;;;3.90;99.90;;;;;;5084058;28;20938;-63
2020/12/01 07:11:13;;;;;;;37.90;21.67;;;3.90;99.90;;;;;;5083990;28;20446;-63
2020/12/01 07:13:49;;;;;;;42.13;19.70;;;3.90;99.90;;;;;;5083916;28;20466;-62
2020/12/01 07:16:27;;;;;;;35.07;18.60;;;3.80;99.90;;;;;;5083984;28;20553;-63
2020/12/01 07:18:58;;;;;;;34.90;18.20;;;3.90;99.90;;;;;;5083838;28;20477;-64
2020/12/01 07:21:41;;;;;;;43.07;23.30;;;3.90;99.90;;;;;;5083312;28;20493;-63
2020/12/01 07:24:20;;;;;;;37.90;20.10;;;4.00;99.90;;;;;;5083950;28;20427;-63
2020/12/01 07:26:54;;;;;;;39.97;21.00;;;3.90;99.90;;;;;;5084728;28;20906;-63
2020/12/01 07:29:27;;;;;;;31.60;20.17;;;3.90;99.90;;;;;;5083789;28;20434;-62
2020/12/01 07:32:06;;;;;;;38.73;21.43;;;3.90;99.90;;;;;;5082884;28;20512;-63
2020/12/01 07:34:34;;;;;;;34.47;20.30;;;3.90;99.90;;;;;;5083132;28;20434;-63
2020/12/01 07:37:29;;;;;;;32.43;18.77;;;3.90;99.90;;;;;;5084674;28;20922;-64
2020/12/01 07:39:58;;;;;;;34.40;19.10;;;3.90;99.90;;;;;;5083868;28;20478;-63
2020/12/01 07:42:27;;;;;;;35.10;19.07;;;3.90;99.90;;;;;;5083061;28;20515;-63
2020/12/01 07:44:56;;;;;;;39.77;20.70;;;4.00;99.90;;;;;;5082511;28;20462;-64
2020/12/01 07:47:24;;;;;;;35.50;20.63;;;4.10;99.90;;;;;;5083300;28;20453;-63
2020/12/01 07:49:59;;;;;;;32.27;19.10;;;4.20;99.90;;;;;;5081933;28;20442;-63
2020/12/01 07:52:33;;;;;;;29.23;16.60;;;4.20;99.90;;;;;;5082023;28;20450;-63
2020/12/01 07:55:04;;;;;;;34.17;19.90;;;4.30;99.90;;;;;;5081567;28;20458;-63
2020/12/01 07:57:30;;;;;;;34.10;17.37;;;4.30;99.90;;;;;;5065956;28;20546;-65
2020/12/01 08:00:00;;;;;;;37.93;19.87;;;4.40;99.90;;;;;;5067722;28;20426;-63
2020/12/01 08:02:29;;;;;;;35.93;20.23;;;4.30;99.90;;;;;;5057506;28;20493;-63
2020/12/01 08:05:01;;;;;;;43.87;21.37;;;4.30;99.90;;;;;;5081949;28;20434;-63
2020/12/01 08:07:28;;;;;;;34.53;21.03;;;4.40;99.90;;;;;;5097548;28;20450;-63
2020/12/01 08:10:03;;;;;;;33.53;19.90;;;4.40;99.90;;;;;;5096891;28;20446;-64
2020/12/01 08:12:35;;;;;;;33.47;19.70;;;4.40;99.90;;;;;;5094955;28;20474;-63
2020/12/01 08:15:03;;;;;;;32.20;18.30;;;4.40;99.90;;;;;;5089092;28;20454;-64
2020/12/01 08:17:33;;;;;;;30.97;17.87;;;4.50;99.90;;;;;;5088700;28;20545;-63
2020/12/01 08:20:00;;;;;;;39.83;19.17;;;4.60;99.90;;;;;;5090785;28;20438;-63
2020/12/01 08:22:30;;;;;;;35.60;18.73;;;4.60;99.90;;;;;;5101698;28;20441;-63
2020/12/01 08:25:01;;;;;;;34.30;19.03;;;4.70;99.90;;;;;;5090826;28;20435;-63
2020/12/01 08:27:36;;;;;;;37.60;20.73;;;4.70;99.90;;;;;;5092937;28;20414;-63
2020/12/01 08:30:07;;;;;;;34.17;18.93;;;4.80;99.90;;;;;;5096112;28;20472;-63
2020/12/01 08:32:37;;;;;;;32.40;18.33;;;4.80;99.90;;;;;;5102525;28;20465;-63
2020/12/01 08:35:14;;;;;;;28.63;18.10;;;4.90;99.90;;;;;;5076950;28;20441;-63
2020/12/01 08:37:53;;;;;;;29.23;16.37;;;4.90;99.90;;;;;;5101799;28;20481;-63
2020/12/01 08:40:32;;;;;;;33.60;18.67;;;4.80;99.90;;;;;;5097341;28;20463;-63
2020/12/01 08:43:18;;;;;;;30.17;18.47;;;4.80;99.90;;;;;;5108713;28;20731;-65
2020/12/01 08:45:53;;;;;;;28.20;17.73;;;4.80;99.90;;;;;;5103191;28;20453;-64
2020/12/01 08:48:29;;;;;;;28.47;17.83;;;4.80;99.90;;;;;;5093481;28;20429;-63
2020/12/01 08:51:08;;;;;;;34.77;19.03;;;4.80;99.90;;;;;;5107396;28;20429;-64
2020/12/01 08:53:46;;;;;;;32.93;16.37;;;4.80;99.90;;;;;;5111944;28;20891;-63
2020/12/01 08:56:30;;;;;;;25.40;15.00;;;4.90;99.90;;;;;;5104927;28;20438;-63
2020/12/01 08:59:06;;;;;;;35.70;17.23;;;4.90;99.90;;;;;;5107471;28;20499;-64
2020/12/01 09:01:42;;;;;;;28.80;17.33;;;4.90;99.90;;;;;;5094575;28;20450;-64
2020/12/01 09:04:21;;;;;;;30.30;17.90;;;4.80;99.90;;;;;;5103099;28;20458;-64
2020/12/01 09:06:48;;;;;;;32.30;18.00;;;4.80;99.90;;;;;;5095412;28;20434;-64
2020/12/01 09:09:20;;;;;;;27.67;17.33;;;4.90;99.90;;;;;;5110086;28;20911;-63
2020/12/01 09:14:57;;;;;;;28.00;15.77;;;5.00;99.90;;;;;;5053993;28;20448;-67
2020/12/01 09:17:35;;;;;;;26.37;14.37;;;5.00;99.90;;;;;;5104880;28;20427;-57
2020/12/01 09:20:43;;;;;;;31.93;16.83;;;5.00;99.90;;;;;;5108756;28;20859;-62
2020/12/01 09:23:15;;;;;;;33.00;16.07;;;5.00;99.90;;;;;;5096174;28;20477;-61
2020/12/01 09:25:42;;;;;;;27.10;15.67;;;5.10;99.90;;;;;;5102911;28;20477;-66
2020/12/01 09:28:18;;;;;;;29.97;17.60;;;5.20;99.90;;;;;;5108838;28;20421;-63
2020/12/01 09:30:46;;;;;;;28.70;17.10;;;5.30;99.90;;;;;;5114086;28;20437;-63
2020/12/01 09:33:18;;;;;;;28.03;16.37;;;5.30;99.90;;;;;;5093197;28;20443;-62
2020/12/01 09:35:44;;;;;;;30.53;17.80;;;5.40;99.90;;;;;;5096021;28;20446;-61
2020/12/01 09:38:14;;;;;;;36.00;17.80;;;5.40;99.90;;;;;;5099851;28;20477;-62
2020/12/01 09:40:42;;;;;;;32.63;19.27;;;5.40;99.90;;;;;;5091968;28;20768;-62
2020/12/01 09:43:16;;;;;;;32.23;17.43;;;5.50;99.90;;;;;;5099727;28;20442;-63
2020/12/01 09:45:45;;;;;;;33.97;17.87;;;5.60;99.90;;;;;;5090674;28;20445;-62
2020/12/01 09:48:16;;;;;;;28.27;16.57;;;5.50;99.90;;;;;;5099976;28;20545;-62
2020/12/01 09:50:43;;;;;;;30.97;17.67;;;5.50;99.90;;;;;;5104423;28;20881;-61
2020/12/01 10:10:18;;;;;;;31.20;17.10;;;5.40;99.90;;;;;;5038224;28;20456;-60
2020/12/01 10:12:55;;;;;;;29.60;16.50;;;5.40;99.90;;;;;;5099924;28;20449;-58
2020/12/01 10:15:36;;;;;;;35.10;18.10;;;5.30;99.90;;;;;;5090278;28;20436;-57
2020/12/01 10:34:55;;;;;;;26.70;15.80;;;5.30;99.90;;;;;;5096586;28;20415;-58
2020/12/01 10:37:21;;;;;;;30.20;16.73;;;5.30;99.90;;;;;;5096305;28;20472;-61
2020/12/01 10:39:49;;;;;;;27.90;16.30;;;5.30;99.90;;;;;;5107512;28;20445;-59
2020/12/01 10:42:16;;;;;;;28.27;16.20;;;5.40;99.90;;;;;;5096207;28;20446;-61
2020/12/01 10:44:43;;;;;;;30.47;17.40;;;5.40;99.90;;;;;;5103080;28;20450;-59
2020/12/01 10:47:10;;;;;;;30.77;18.37;;;5.30;99.90;;;;;;5100283;28;20834;-59
2020/12/01 10:49:37;;;;;;;25.63;14.70;;;5.30;99.90;;;;;;5111255;28;20430;-59
2020/12/01 10:52:09;;;;;;;30.83;16.80;;;5.30;99.90;;;;;;5098250;28;20468;-59
2020/12/01 10:54:36;;;;;;;29.20;16.33;;;5.30;99.90;;;;;;5102085;28;20971;-60
2020/12/01 10:57:03;;;;;;;28.47;16.27;;;5.30;99.90;;;;;;5098701;28;20444;-58
2020/12/01 10:59:30;;;;;;;28.70;15.73;;;5.40;99.90;;;;;;5100930;28;20469;-58
2020/12/01 11:01:56;;;;;;;23.40;15.50;;;5.40;99.90;;;;;;5094339;28;20462;-62
2020/12/01 11:04:23;;;;;;;27.57;15.03;;;5.40;99.90;;;;;;5099427;28;20473;-60
2020/12/01 11:06:49;;;;;;;31.13;15.27;;;5.40;99.90;;;;;;5093888;28;20483;-58
2020/12/01 11:09:16;;;;;;;22.50;13.60;;;5.50;99.90;;;;;;5104033;28;20464;-58
2020/12/01 11:11:43;;;;;;;22.83;13.60;;;5.50;99.90;;;;;;5103570;28;20518;-57
2020/12/01 11:14:11;;;;;;;22.03;14.30;;;5.50;99.90;;;;;;5113187;28;20445;-60
2020/12/01 11:16:37;;;;;;;25.70;13.80;;;5.50;99.90;;;;;;5093310;28;20755;-59
2020/12/01 11:19:05;;;;;;;25.27;14.87;;;5.50;99.90;;;;;;5101554;28;20459;-61
2020/12/01 11:21:35;;;;;;;28.50;16.43;;;5.60;99.90;;;;;;5094962;28;20952;-60
2020/12/01 11:24:02;;;;;;;30.97;17.00;;;5.70;99.90;;;;;;5103654;28;20446;-60
2020/12/01 11:26:28;;;;;;;24.27;14.33;;;5.80;99.90;;;;;;5091613;28;20466;-59
2020/12/01 11:28:55;;;;;;;23.83;15.40;;;6.00;99.90;;;;;;5098953;28;20511;-59
2020/12/01 11:31:24;;;;;;;24.00;15.33;;;6.00;99.90;;;;;;5094252;28;20466;-60
2020/12/01 11:34:03;;;;;;;27.47;15.10;;;6.00;99.90;;;;;;5098996;28;20446;-62
2020/12/01 11:36:30;;;;;;;23.80;12.47;;;6.00;99.90;;;;;;5096872;28;20456;-58
2020/12/01 11:38:58;;;;;;;24.73;16.23;;;6.00;99.90;;;;;;5086696;28;20482;-61
2020/12/01 11:41:25;;;;;;;28.10;15.37;;;6.10;99.90;;;;;;5101538;28;20426;-61
2020/12/01 11:43:51;;;;;;;28.50;15.70;;;6.20;99.90;;;;;;5101190;28;20513;-60
2020/12/01 11:46:18;;;;;;;27.90;16.00;;;6.20;99.90;;;;;;5100390;28;20449;-61
2020/12/01 11:48:45;;;;;;;25.77;16.63;;;6.40;99.90;;;;;;5095035;28;20449;-61
2020/12/01 11:51:13;;;;;;;27.67;16.80;;;6.40;99.90;;;;;;5095454;28;20477;-61
2020/12/01 11:53:39;;;;;;;27.37;15.63;;;6.50;99.90;;;;;;5085061;28;20526;-59
2020/12/01 11:56:06;;;;;;;24.97;15.40;;;6.60;99.90;;;;;;5090950;28;20454;-58
2020/12/01 11:58:32;;;;;;;25.00;15.47;;;6.60;99.90;;;;;;5110469;28;20822;-61
2020/12/01 12:01:03;;;;;;;23.37;14.50;;;6.70;99.90;;;;;;5098378;28;20484;-62
2020/12/01 12:03:29;;;;;;;24.33;14.50;;;6.70;99.90;;;;;;5099746;28;20466;-61
2020/12/01 12:05:57;;;;;;;21.13;13.93;;;6.70;99.90;;;;;;5099398;28;20453;-60
2020/12/01 12:08:24;;;;;;;21.67;13.50;;;6.70;99.90;;;;;;5090111;28;20438;-60
2020/12/01 12:10:51;;;;;;;24.23;16.20;;;6.70;99.90;;;;;;5093075;28;20453;-62
2020/12/01 12:13:19;;;;;;;26.53;16.03;;;6.70;99.90;;;;;;5095015;28;20422;-61
2020/12/01 12:15:46;;;;;;;27.87;14.80;;;6.60;99.90;;;;;;5100047;28;20453;-61
2020/12/01 12:18:12;;;;;;;29.70;15.23;;;6.50;99.90;;;;;;5099936;28;20472;-62
2020/12/01 12:20:39;;;;;;;26.37;15.30;;;6.50;99.90;;;;;;5108950;28;20437;-58
2020/12/01 12:23:06;;;;;;;23.17;14.60;;;6.50;99.90;;;;;;5100945;28;20465;-62
2020/12/01 12:25:32;;;;;;;28.80;16.70;;;6.40;99.90;;;;;;5098553;28;20445;-61
2020/12/01 12:27:59;;;;;;;27.50;15.43;;;6.40;99.90;;;;;;5096422;28;20898;-60
2020/12/01 12:30:25;;;;;;;27.47;15.20;;;6.40;99.90;;;;;;5095537;28;20454;-59
2020/12/01 12:32:52;;;;;;;29.43;15.43;;;6.50;99.90;;;;;;5093525;28;20480;-59
2020/12/01 12:35:18;;;;;;;28.47;16.30;;;6.50;99.90;;;;;;5094322;28;20453;-63
2020/12/01 12:37:45;;;;;;;23.53;14.80;;;6.60;99.90;;;;;;5098586;28;20474;-60
2020/12/01 12:40:13;;;;;;;31.37;17.17;;;6.50;99.90;;;;;;5102630;28;20468;-60
2020/12/01 12:42:39;;;;;;;26.53;16.37;;;6.40;99.90;;;;;;5090188;28;20984;-57
2020/12/01 12:45:07;;;;;;;22.63;14.13;;;6.40;99.90;;;;;;5093516;28;20442;-61
2020/12/01 12:47:33;;;;;;;27.20;17.07;;;6.40;99.90;;;;;;5109813;28;20457;-61
2020/12/01 12:50:00;;;;;;;26.83;15.23;;;6.30;99.90;;;;;;5101822;28;20438;-61
2020/12/01 12:52:26;;;;;;;26.57;14.83;;;6.30;99.90;;;;;;5114554;28;20475;-59
2020/12/01 12:54:53;;;;;;;26.03;16.37;;;6.30;99.90;;;;;;5106905;28;20429;-60
2020/12/01 12:57:20;;;;;;;24.90;16.10;;;6.30;99.90;;;;;;5097225;28;20503;-59
2020/12/01 12:59:46;;;;;;;29.53;15.50;;;6.20;99.90;;;;;;5102983;28;20492;-57
2020/12/01 13:02:13;;;;;;;25.93;15.83;;;6.20;99.90;;;;;;5114109;28;20441;-61
2020/12/01 13:04:39;;;;;;;28.70;17.10;;;6.10;99.90;;;;;;5100240;28;20473;-62
2020/12/01 13:07:07;;;;;;;25.03;15.17;;;6.10;99.90;;;;;;5101432;28;20519;-63
2020/12/01 13:09:33;;;;;;;26.10;15.30;;;6.00;99.90;;;;;;5099594;28;20464;-55
2020/12/01 13:12:00;;;;;;;26.70;17.00;;;6.00;99.90;;;;;;5098315;28;20537;-57
2020/12/01 13:14:28;;;;;;;26.10;15.43;;;6.10;99.90;;;;;;5106411;28;20434;-61
2020/12/01 13:16:54;;;;;;;24.73;15.73;;;6.10;99.90;;;;;;5106303;28;21149;-60
2020/12/01 13:19:21;;;;;;;24.43;15.97;;;6.10;99.90;;;;;;5096432;28;20469;-54
2020/12/01 13:21:48;;;;;;;24.50;15.00;;;6.20;99.90;;;;;;5107443;28;20458;-57
2020/12/01 13:24:15;;;;;;;27.67;16.57;;;6.10;99.90;;;;;;5119337;28;20449;-59
2020/12/01 13:26:42;;;;;;;22.40;14.80;;;6.20;99.90;;;;;;5119664;28;20495;-60
2020/12/01 13:29:09;;;;;;;28.30;15.70;;;6.20;99.90;;;;;;5107876;28;20446;-60
2020/12/01 13:31:36;;;;;;;28.03;16.20;;;6.10;99.90;;;;;;5099881;28;20434;-60